createdAt,value
2017-10-09T00:00:35.745Z,67.71
2017-10-09T00:03:03.506Z,67.99
2017-10-09T00:05:31.030Z,68.33
2017-10-09T00:07:58.554Z,67.80
2017-10-09T00:10:26.970Z,67.53
2017-10-09T00:12:54.995Z,67.80
2017-10-09T00:15:22.558Z,67.80
2017-10-09T00:17:50.319Z,67.64
2017-10-09T00:20:17.878Z,67.88
2017-10-09T00:22:45.743Z,67.64
2017-10-09T00:25:13.328Z,67.93
2017-10-09T00:27:41.707Z,67.45
2017-10-09T00:30:09.803Z,67.30
2017-10-09T00:32:37.668Z,67.18
2017-10-09T00:35:05.187Z,67.23
2017-10-09T00:37:34.517Z,67.15
2017-10-09T00:40:02.140Z,67.08
2017-10-09T00:42:29.695Z,67.18
2017-10-09T00:44:58.281Z,67.36
2017-10-09T00:47:25.942Z,67.81
2017-10-09T00:49:53.542Z,67.12
2017-10-09T00:52:21.064Z,67.06
2017-10-09T00:57:18.159Z,67.05
2017-10-09T00:59:45.683Z,66.85
2017-10-09T01:02:14.062Z,66.82
2017-10-09T01:04:41.622Z,66.95
2017-10-09T01:07:09.181Z,66.56
2017-10-09T01:09:36.944Z,66.84
2017-10-09T01:12:04.494Z,67.18
2017-10-09T01:14:32.018Z,66.77
2017-10-09T01:16:59.567Z,66.74
2017-10-09T01:19:27.098Z,68.10
2017-10-09T01:21:54.621Z,69.15
2017-10-09T01:24:22.503Z,69.39
2017-10-09T01:26:50.068Z,69.23
2017-10-09T01:29:17.624Z,69.10
2017-10-09T01:31:46.205Z,69.21
2017-10-09T01:34:13.777Z,69.21
2017-10-09T01:36:41.323Z,69.03
2017-10-09T01:39:09.272Z,69.09
2017-10-09T01:41:36.786Z,69.16
2017-10-09T01:44:04.550Z,69.27
2017-10-09T01:46:32.381Z,68.79
2017-10-09T01:48:59.939Z,68.98
2017-10-09T01:51:27.499Z,68.91
2017-10-09T01:53:55.243Z,68.51
2017-10-09T01:56:22.761Z,68.69
2017-10-09T01:58:50.278Z,68.68
2017-10-09T02:01:18.023Z,68.64
2017-10-09T02:03:45.540Z,68.61
2017-10-09T02:06:13.067Z,68.18
2017-10-09T02:08:40.997Z,68.17
2017-10-09T02:11:08.505Z,68.17
2017-10-09T02:13:36.042Z,68.11
2017-10-09T02:16:03.927Z,68.16
2017-10-09T02:18:31.470Z,68.03
2017-10-09T02:20:59.862Z,68.06
2017-10-09T02:23:27.514Z,68.37
2017-10-09T02:25:55.066Z,68.52
2017-10-09T02:28:22.627Z,68.16
2017-10-09T02:30:50.387Z,68.11
2017-10-09T02:33:17.949Z,68.22
2017-10-09T02:35:45.507Z,68.04
2017-10-09T02:38:13.080Z,68.36
2017-10-09T02:40:40.636Z,68.19
2017-10-09T02:43:08.151Z,68.25
2017-10-09T02:45:35.830Z,68.65
2017-10-09T02:48:03.555Z,68.51
2017-10-09T02:50:31.101Z,69.34
2017-10-09T02:52:59.166Z,69.41
2017-10-09T02:55:26.731Z,69.62
2017-10-09T02:57:54.238Z,69.33
2017-10-09T03:00:21.890Z,69.33
2017-10-09T03:02:49.408Z,69.55
2017-10-09T03:05:17.015Z,69.36
2017-10-09T03:07:44.606Z,69.06
2017-10-09T03:10:12.130Z,68.79
2017-10-09T03:12:39.641Z,68.62
2017-10-09T03:15:07.558Z,68.71
2017-10-09T03:17:35.083Z,68.56
2017-10-09T03:20:02.643Z,68.31
2017-10-09T03:25:46.662Z,68.32
2017-10-09T03:28:14.918Z,68.37
2017-10-09T03:30:42.496Z,68.51
2017-10-09T03:33:10.057Z,68.25
2017-10-09T03:35:37.682Z,68.33
2017-10-09T03:38:05.215Z,67.85
2017-10-09T03:40:32.733Z,67.60
2017-10-09T03:43:00.391Z,67.45
2017-10-09T03:45:27.952Z,67.15
2017-10-09T03:47:56.023Z,67.12
2017-10-09T03:50:23.827Z,67.40
2017-10-09T03:52:52.370Z,67.54
2017-10-09T03:55:20.850Z,67.38
2017-10-09T03:57:48.806Z,67.19
2017-10-09T04:00:16.327Z,67.45
2017-10-09T04:02:43.854Z,67.42
2017-10-09T04:05:12.418Z,67.29
2017-10-09T04:07:39.977Z,67.60
2017-10-09T04:10:07.518Z,67.65
2017-10-09T04:12:35.197Z,67.85
2017-10-09T04:15:02.758Z,67.56
2017-10-09T04:17:30.266Z,67.01
2017-10-09T04:19:58.181Z,67.12
2017-10-09T04:22:25.694Z,67.36
2017-10-09T04:24:53.218Z,66.85
2017-10-09T04:27:20.949Z,66.78
2017-10-09T04:29:48.477Z,66.64
2017-10-09T04:32:16.022Z,66.83
2017-10-09T04:34:43.742Z,66.56
2017-10-09T04:37:11.300Z,66.95
2017-10-09T04:39:38.828Z,66.59
2017-10-09T04:42:06.506Z,66.54
2017-10-09T04:44:34.027Z,66.56
2017-10-09T04:47:01.551Z,67.47
2017-10-09T04:49:29.454Z,67.20
2017-10-09T04:51:56.990Z,67.02
2017-10-09T04:54:24.624Z,67.02
2017-10-09T04:56:52.370Z,67.34
2017-10-09T04:59:19.976Z,67.81
2017-10-09T05:01:47.506Z,67.20
2017-10-09T05:04:15.782Z,67.15
2017-10-09T05:06:43.336Z,67.50
2017-10-09T05:09:10.898Z,67.73
2017-10-09T05:11:38.474Z,67.55
2017-10-09T05:14:06.018Z,67.53
2017-10-09T05:16:33.564Z,67.82
2017-10-09T05:19:01.138Z,67.68
2017-10-09T05:21:28.694Z,67.88
2017-10-09T05:23:56.645Z,68.24
2017-10-09T05:26:24.632Z,68.00
2017-10-09T05:28:52.191Z,67.67
2017-10-09T05:31:19.750Z,68.32
2017-10-09T05:33:47.464Z,67.89
2017-10-09T05:36:14.998Z,68.74
2017-10-09T05:38:42.549Z,68.21
2017-10-09T05:41:10.295Z,68.16
2017-10-09T05:43:37.854Z,67.95
2017-10-09T05:46:05.422Z,67.99
2017-10-09T05:48:33.175Z,67.56
2017-10-09T05:51:00.739Z,67.89
2017-10-09T05:53:28.295Z,67.82
2017-10-09T05:55:56.467Z,68.03
2017-10-09T05:58:24.027Z,67.73
2017-10-09T06:00:51.563Z,67.61
2017-10-09T06:03:19.144Z,67.49
2017-10-09T06:05:46.663Z,67.69
2017-10-09T06:08:14.190Z,67.85
2017-10-09T06:10:41.778Z,67.45
2017-10-09T06:13:09.319Z,67.07
2017-10-09T06:15:36.846Z,66.69
2017-10-09T06:18:04.791Z,66.84
2017-10-09T06:20:32.315Z,66.71
2017-10-09T06:22:59.834Z,66.97
2017-10-09T06:25:27.512Z,67.05
2017-10-09T06:27:55.055Z,67.05
2017-10-09T06:30:22.586Z,66.83
2017-10-09T06:32:50.426Z,66.94
2017-10-09T06:35:17.953Z,66.56
2017-10-09T06:37:45.492Z,66.46
2017-10-09T06:40:13.252Z,66.50
2017-10-09T06:42:40.829Z,66.00
2017-10-09T06:47:42.401Z,65.23
2017-10-09T06:50:09.955Z,65.30
2017-10-09T06:52:37.476Z,65.53
2017-10-09T06:55:06.386Z,64.19
2017-10-09T06:57:33.947Z,64.51
2017-10-09T07:00:02.653Z,64.55
2017-10-09T07:02:30.484Z,64.90
2017-10-09T07:04:58.003Z,65.38
2017-10-09T07:07:25.569Z,65.69
2017-10-09T07:09:53.286Z,65.16
2017-10-09T07:12:20.835Z,64.96
2017-10-09T07:14:48.406Z,64.78
2017-10-09T07:17:15.954Z,64.73
2017-10-09T07:19:43.512Z,63.82
2017-10-09T07:22:11.074Z,63.55
2017-10-09T07:24:38.818Z,63.55
2017-10-09T07:27:06.395Z,63.27
2017-10-09T07:29:33.954Z,63.79
2017-10-09T07:32:01.528Z,63.91
2017-10-09T07:34:29.123Z,63.26
2017-10-09T07:36:57.617Z,63.21
2017-10-09T07:39:25.739Z,63.73
2017-10-09T07:41:53.287Z,64.03
2017-10-09T07:44:20.844Z,64.08
2017-10-09T07:46:48.547Z,64.02
2017-10-09T07:49:16.062Z,63.55
2017-10-09T07:51:43.625Z,64.67
2017-10-09T07:54:11.802Z,63.96
2017-10-09T07:56:39.392Z,63.85
2017-10-09T07:59:06.917Z,63.15
2017-10-09T08:01:34.503Z,62.80
2017-10-09T08:04:02.548Z,62.31
2017-10-09T08:06:30.108Z,62.62
2017-10-09T08:08:57.869Z,62.36
2017-10-09T08:11:25.386Z,61.76
2017-10-09T08:13:53.397Z,60.68
2017-10-09T08:16:21.263Z,62.55
2017-10-09T08:18:48.844Z,61.08
2017-10-09T08:21:16.382Z,60.37
2017-10-09T08:23:44.125Z,59.89
2017-10-09T08:26:12.627Z,59.95
2017-10-09T08:28:40.189Z,59.91
2017-10-09T08:31:07.746Z,58.58
2017-10-09T08:33:35.304Z,59.48
2017-10-09T08:36:02.814Z,58.33
2017-10-09T08:38:30.713Z,57.59
2017-10-09T08:40:58.233Z,58.56
2017-10-09T08:43:25.765Z,57.87
2017-10-09T08:45:53.342Z,57.71
2017-10-09T08:48:20.966Z,57.20
2017-10-09T08:50:49.082Z,56.13
2017-10-09T08:53:18.337Z,55.92
2017-10-09T08:55:46.407Z,56.46
2017-10-09T08:58:16.629Z,56.16
2017-10-09T09:00:44.941Z,56.78
2017-10-09T09:03:13.441Z,55.69
2017-10-09T09:05:41.151Z,54.61
2017-10-09T09:08:09.016Z,53.13
2017-10-09T09:10:36.679Z,52.56
2017-10-09T09:13:06.610Z,51.55
2017-10-09T09:15:34.241Z,51.26
2017-10-09T09:18:02.235Z,46.95
2017-10-09T09:20:30.917Z,45.29
2017-10-09T09:22:58.876Z,43.87
2017-10-09T09:25:29.494Z,45.69
2017-10-09T09:27:57.068Z,46.27
2017-10-09T09:30:25.138Z,49.81
2017-10-09T09:32:53.413Z,52.17
2017-10-09T09:35:21.079Z,50.75
2017-10-09T09:37:49.364Z,50.74
2017-10-09T09:40:19.670Z,50.83
2017-10-09T09:42:48.056Z,51.12
2017-10-09T09:45:15.660Z,52.12
2017-10-09T09:47:45.220Z,51.53
2017-10-09T09:50:13.200Z,50.33
2017-10-09T09:52:41.050Z,49.64
2017-10-09T09:55:09.539Z,49.72
2017-10-09T09:57:37.095Z,49.42
2017-10-09T10:00:05.576Z,46.92
2017-10-09T10:02:33.143Z,47.22
2017-10-09T10:05:00.694Z,47.29
2017-10-09T10:07:28.274Z,46.80
2017-10-09T10:09:55.791Z,44.81
2017-10-09T10:12:23.942Z,42.47
2017-10-09T10:14:52.568Z,41.42
2017-10-09T10:17:20.109Z,42.17
2017-10-09T10:19:48.915Z,40.19
2017-10-09T10:22:16.474Z,42.22
2017-10-09T10:24:44.384Z,41.45
2017-10-09T10:27:13.467Z,40.58
2017-10-09T10:29:43.055Z,39.22
2017-10-09T10:32:10.734Z,36.80
2017-10-09T10:34:39.082Z,34.82
2017-10-09T10:37:08.632Z,36.64
2017-10-09T10:39:36.252Z,37.46
2017-10-09T10:42:04.547Z,37.93
2017-10-09T10:44:32.394Z,37.78
2017-10-09T10:47:02.964Z,36.38
2017-10-09T10:49:30.482Z,37.08
2017-10-09T10:51:58.158Z,37.63
2017-10-09T10:54:25.702Z,39.02
2017-10-09T10:56:53.259Z,38.55
2017-10-09T10:59:21.228Z,37.74
2017-10-09T11:01:48.750Z,36.82
2017-10-09T11:04:16.275Z,31.69
2017-10-09T11:06:43.848Z,30.09
2017-10-09T11:09:11.361Z,22.59
2017-10-09T11:11:38.874Z,23.39
2017-10-09T11:14:06.583Z,21.89
2017-10-09T11:16:34.098Z,24.41
2017-10-09T11:19:01.617Z,26.85
2017-10-09T11:21:29.973Z,29.13
2017-10-09T11:23:58.176Z,31.65
2017-10-09T11:26:28.479Z,34.49
2017-10-09T11:28:57.347Z,35.81
2017-10-09T11:31:25.006Z,36.30
2017-10-09T11:33:53.508Z,38.07
2017-10-09T11:36:21.272Z,39.49
2017-10-09T11:38:50.162Z,38.96
2017-10-09T11:41:17.757Z,39.52
2017-10-09T11:43:45.566Z,41.06
2017-10-09T11:46:13.086Z,42.61
2017-10-09T11:48:42.128Z,43.59
2017-10-09T11:51:11.134Z,45.33
2017-10-09T11:53:38.703Z,45.20
2017-10-09T11:56:06.250Z,44.07
2017-10-09T11:58:35.131Z,42.15
2017-10-09T12:01:02.700Z,41.19
2017-10-09T12:03:30.264Z,37.53
2017-10-09T12:05:59.046Z,35.38
2017-10-09T12:08:26.622Z,33.70
2017-10-09T12:10:54.638Z,33.57
2017-10-09T12:13:22.853Z,33.50
2017-10-09T12:15:50.385Z,31.35
2017-10-09T12:18:18.804Z,29.51
2017-10-09T12:20:46.655Z,23.89
2017-10-09T12:23:14.214Z,20.26
2017-10-09T12:25:41.723Z,20.39
2017-10-09T12:28:09.888Z,24.61
2017-10-09T12:30:37.505Z,27.37
2017-10-09T12:33:05.062Z,28.56
2017-10-09T12:35:32.864Z,32.44
2017-10-09T12:38:01.179Z,34.12
2017-10-09T12:40:29.509Z,30.07
2017-10-09T12:42:57.786Z,27.28
2017-10-09T12:45:25.324Z,27.26
2017-10-09T12:47:52.938Z,27.30
2017-10-09T12:50:21.749Z,25.23
2017-10-09T12:52:49.435Z,24.66
2017-10-09T12:55:17.594Z,21.45
2017-10-09T12:57:45.674Z,23.56
2017-10-09T13:00:14.242Z,26.95
2017-10-09T13:02:41.919Z,29.52
2017-10-09T13:05:09.685Z,31.51
2017-10-09T13:07:37.298Z,30.75
2017-10-09T13:10:04.904Z,33.13
2017-10-09T13:12:32.767Z,32.23
2017-10-09T13:15:00.329Z,34.26
2017-10-09T13:17:27.945Z,34.20
2017-10-09T13:19:57.646Z,36.09
2017-10-09T13:22:25.359Z,37.25
2017-10-09T13:24:54.879Z,38.69
2017-10-09T13:27:22.834Z,38.66
2017-10-09T13:29:50.393Z,38.39
2017-10-09T13:32:18.266Z,38.29
2017-10-09T13:34:45.923Z,38.68
2017-10-09T13:37:13.481Z,38.37
2017-10-09T13:39:41.023Z,39.28
2017-10-09T13:42:08.711Z,39.78
2017-10-09T13:44:36.255Z,38.42
2017-10-09T13:47:03.778Z,38.54
2017-10-09T13:49:31.526Z,37.19
2017-10-09T13:51:59.039Z,37.78
2017-10-09T13:54:26.597Z,38.76
2017-10-09T13:56:54.263Z,39.25
2017-10-09T13:59:21.821Z,39.46
2017-10-09T14:01:49.390Z,40.06
2017-10-09T14:04:17.166Z,40.88
2017-10-09T14:06:44.718Z,39.46
2017-10-09T14:09:12.467Z,39.54
2017-10-09T14:11:40.192Z,37.82
2017-10-09T14:14:07.942Z,38.22
2017-10-09T14:16:35.454Z,37.54
2017-10-09T14:19:03.209Z,36.50
2017-10-09T14:21:30.726Z,36.28
2017-10-09T14:23:58.410Z,35.92
2017-10-09T14:26:26.198Z,36.16
2017-10-09T14:28:54.168Z,35.60
2017-10-09T14:41:11.972Z,38.69
2017-10-09T14:43:39.791Z,40.06
2017-10-09T14:46:07.309Z,39.73
2017-10-09T14:48:35.259Z,39.11
2017-10-09T14:51:03.320Z,38.04
2017-10-09T14:53:30.931Z,37.09
2017-10-09T14:55:58.742Z,37.61
2017-10-09T14:58:26.452Z,37.27
2017-10-09T15:00:54.181Z,36.02
2017-10-09T15:03:22.127Z,37.94
2017-10-09T15:05:49.644Z,36.82
2017-10-09T15:08:18.128Z,36.82
2017-10-09T15:10:45.867Z,38.09
2017-10-09T15:13:13.413Z,38.21
2017-10-09T15:15:40.924Z,37.32
2017-10-09T15:18:08.839Z,38.25
2017-10-09T15:20:36.902Z,39.24
2017-10-09T15:23:04.946Z,39.92
2017-10-09T15:25:32.737Z,40.38
2017-10-09T15:28:00.400Z,41.45
2017-10-09T15:30:29.495Z,42.82
2017-10-09T15:32:57.362Z,43.75
2017-10-09T15:35:25.495Z,43.82
2017-10-09T15:37:53.400Z,44.63
2017-10-09T15:40:21.573Z,46.12
2017-10-09T15:42:49.385Z,46.13
2017-10-09T15:45:17.007Z,46.81
2017-10-09T15:47:44.660Z,46.53
2017-10-09T15:50:12.303Z,46.64
2017-10-09T15:52:39.931Z,46.11
2017-10-09T15:55:08.465Z,45.20
2017-10-09T15:57:36.146Z,46.04
2017-10-09T16:00:03.993Z,47.42
2017-10-09T16:02:32.590Z,49.18
2017-10-09T16:05:00.443Z,47.07
2017-10-09T16:07:28.000Z,49.55
2017-10-09T16:09:55.970Z,48.65
2017-10-09T16:12:23.753Z,51.10
2017-10-09T16:14:51.343Z,53.42
2017-10-09T16:17:19.383Z,55.01
2017-10-09T16:19:47.522Z,56.16
2017-10-09T16:22:15.935Z,56.71
2017-10-09T16:24:44.641Z,56.09
2017-10-09T16:27:12.468Z,57.96
2017-10-09T16:29:40.456Z,58.05
2017-10-09T16:32:08.548Z,58.67
2017-10-09T16:34:36.190Z,58.92
2017-10-09T16:37:04.478Z,58.49
2017-10-09T16:39:32.619Z,58.93
2017-10-09T16:42:00.947Z,59.40
2017-10-09T16:44:28.658Z,59.05
2017-10-09T16:46:56.750Z,58.90
2017-10-09T16:49:24.524Z,59.25
2017-10-09T16:51:52.258Z,59.91
2017-10-09T16:54:20.833Z,59.80
2017-10-09T16:56:48.506Z,59.52
2017-10-09T16:59:16.688Z,61.25
2017-10-09T17:01:44.824Z,60.67
2017-10-09T17:04:12.462Z,60.33
2017-10-09T17:06:40.177Z,61.21
2017-10-09T17:09:08.106Z,60.89
2017-10-09T17:11:36.421Z,61.17
2017-10-09T17:14:04.245Z,62.00
2017-10-09T17:16:32.764Z,63.63
2017-10-09T17:19:00.550Z,63.45
2017-10-09T17:21:29.009Z,63.52
2017-10-09T17:23:57.310Z,63.30
2017-10-09T17:26:25.196Z,62.95
2017-10-09T17:28:53.035Z,63.54
2017-10-09T17:31:21.500Z,63.58
2017-10-09T17:33:49.423Z,63.81
2017-10-09T17:36:17.291Z,64.30
2017-10-09T17:38:45.334Z,64.54
2017-10-09T17:41:13.783Z,64.29
2017-10-09T17:43:42.283Z,64.62
2017-10-09T17:46:10.358Z,64.08
2017-10-09T17:48:38.253Z,64.79
2017-10-09T17:51:06.040Z,65.35
2017-10-09T17:53:33.831Z,65.13
2017-10-09T17:56:01.605Z,64.54
2017-10-09T17:58:29.702Z,64.28
2017-10-09T18:00:57.661Z,64.30
2017-10-09T18:03:26.287Z,64.25
2017-10-09T18:05:54.700Z,64.98
2017-10-09T18:08:24.035Z,64.12
2017-10-09T18:10:51.766Z,64.04
2017-10-09T18:13:19.536Z,64.70
2017-10-09T18:15:47.620Z,64.53
2017-10-09T18:18:15.371Z,64.39
2017-10-09T18:20:43.355Z,64.33
2017-10-09T18:23:11.221Z,65.81
2017-10-09T18:25:39.070Z,65.02
2017-10-09T18:28:06.940Z,65.98
2017-10-09T18:30:35.051Z,66.07
2017-10-09T18:33:02.794Z,66.76
2017-10-09T18:35:31.452Z,67.62
2017-10-09T18:38:03.515Z,67.32
2017-10-09T18:40:31.304Z,67.50
2017-10-09T18:42:59.658Z,68.03
2017-10-09T18:45:27.832Z,68.58
2017-10-09T18:47:55.818Z,67.64
2017-10-09T18:50:24.147Z,68.27
2017-10-09T18:52:56.287Z,68.40
2017-10-09T18:55:23.999Z,68.21
2017-10-09T18:57:51.790Z,68.82
2017-10-09T19:00:20.011Z,68.16
2017-10-09T19:02:47.913Z,67.75
2017-10-09T19:05:15.883Z,67.91
2017-10-09T19:07:46.206Z,68.13
2017-10-09T19:10:14.400Z,67.48
2017-10-09T19:12:42.974Z,67.28
2017-10-09T19:15:11.345Z,67.10
2017-10-09T19:17:39.132Z,67.76
2017-10-09T19:20:06.870Z,67.77
2017-10-09T19:22:34.661Z,68.33
2017-10-09T19:25:03.258Z,68.78
2017-10-09T19:27:31.595Z,68.37
2017-10-09T19:30:00.818Z,68.94
2017-10-09T19:32:28.559Z,69.18
2017-10-09T19:34:56.936Z,68.95
2017-10-09T19:37:25.415Z,70.09
2017-10-09T19:39:53.794Z,70.67
2017-10-09T19:42:21.676Z,71.18
2017-10-09T19:44:50.655Z,71.93
2017-10-09T19:47:18.533Z,71.95
2017-10-09T19:49:46.590Z,71.60
2017-10-09T19:52:14.867Z,71.20
2017-10-09T19:54:42.726Z,71.20
2017-10-09T19:57:10.478Z,70.71
2017-10-09T19:59:38.840Z,70.97
2017-10-09T20:02:06.847Z,71.04
2017-10-09T20:04:35.393Z,71.37
2017-10-09T20:07:03.516Z,70.50
2017-10-09T20:09:31.387Z,70.47
2017-10-09T20:11:59.133Z,71.65
2017-10-09T20:14:27.509Z,70.83
2017-10-09T20:16:56.398Z,71.53
2017-10-09T20:19:24.059Z,70.87
2017-10-09T20:21:52.847Z,71.48
2017-10-09T20:24:20.732Z,71.45
2017-10-09T20:26:49.007Z,71.17
2017-10-09T20:29:16.966Z,70.84
2017-10-09T20:31:44.737Z,70.53
2017-10-09T20:34:12.692Z,69.99
2017-10-09T20:36:40.453Z,70.77
2017-10-09T20:39:08.012Z,70.08
2017-10-09T20:41:35.619Z,70.18
2017-10-09T20:44:03.369Z,70.13
2017-10-09T20:46:30.919Z,71.16
2017-10-09T20:48:58.466Z,70.93
2017-10-09T20:51:26.627Z,70.89
2017-10-09T20:53:54.562Z,70.56
2017-10-09T20:56:22.215Z,71.65
2017-10-09T20:58:49.920Z,72.52
2017-10-09T21:01:17.478Z,71.18
2017-10-09T21:03:45.038Z,71.03
2017-10-09T21:06:12.703Z,71.47
2017-10-09T21:08:40.365Z,71.75
2017-10-09T21:11:10.071Z,70.10
2017-10-09T21:13:38.182Z,70.49
2017-10-09T21:16:05.887Z,71.74
2017-10-09T21:18:33.469Z,71.38
2017-10-09T21:21:04.692Z,72.34
2017-10-09T21:23:32.215Z,71.70
2017-10-09T21:25:59.767Z,71.07
2017-10-09T21:28:27.490Z,71.25
2017-10-09T21:30:55.011Z,71.34
2017-10-09T21:33:22.554Z,71.10
2017-10-09T21:35:50.474Z,70.00
2017-10-09T21:38:18.058Z,70.58
2017-10-09T21:40:45.583Z,71.01
2017-10-09T21:43:13.363Z,70.51
2017-10-09T21:45:40.916Z,70.84
2017-10-09T21:48:08.440Z,71.20
2017-10-09T21:50:36.035Z,70.45
2017-10-09T21:53:03.593Z,70.27
2017-10-09T21:55:31.154Z,70.79
2017-10-09T21:57:58.735Z,70.11
2017-10-09T22:00:26.262Z,69.70
2017-10-09T22:02:53.787Z,69.64
2017-10-09T22:05:21.391Z,69.42
2017-10-09T22:07:48.949Z,70.20
2017-10-09T22:10:16.514Z,68.98
2017-10-09T22:12:44.111Z,69.30
2017-10-09T22:15:11.627Z,68.62
2017-10-09T22:17:39.152Z,67.75
2017-10-09T22:20:06.965Z,68.54
2017-10-09T22:22:34.506Z,67.68
2017-10-09T22:25:02.097Z,67.90
2017-10-09T22:27:29.942Z,67.39
2017-10-09T22:29:57.493Z,67.47
2017-10-09T22:32:25.018Z,67.11
2017-10-09T22:34:52.567Z,67.36
2017-10-09T22:37:20.179Z,68.88
2017-10-09T22:39:47.690Z,68.56
2017-10-09T22:42:15.572Z,69.92
2017-10-09T22:44:43.092Z,69.27
2017-10-09T22:47:10.639Z,69.43
2017-10-09T22:49:38.458Z,69.54
2017-10-09T22:52:05.998Z,69.89
2017-10-09T22:54:41.583Z,69.69
2017-10-09T22:57:09.107Z,69.53
2017-10-09T22:59:36.635Z,70.07
2017-10-09T23:02:04.202Z,69.81
2017-10-09T23:04:31.724Z,68.90
2017-10-09T23:06:59.275Z,69.21
2017-10-09T23:09:27.039Z,68.92
2017-10-09T23:11:54.598Z,69.46
2017-10-09T23:14:22.124Z,68.45
2017-10-09T23:16:50.126Z,68.66
2017-10-09T23:19:17.685Z,68.91
2017-10-09T23:21:45.245Z,68.02
2017-10-09T23:24:13.113Z,68.33
2017-10-09T23:26:40.635Z,68.04
2017-10-09T23:29:09.152Z,68.12
2017-10-09T23:31:36.722Z,68.37
2017-10-09T23:34:04.269Z,68.32
2017-10-09T23:36:31.829Z,67.48
2017-10-09T23:38:59.795Z,67.34
2017-10-09T23:41:27.356Z,67.85
2017-10-09T23:43:54.874Z,67.59
2017-10-09T23:46:22.654Z,67.24
2017-10-09T23:48:50.171Z,67.83
2017-10-09T23:51:17.685Z,67.51
2017-10-09T23:53:45.363Z,67.81
2017-10-09T23:56:12.914Z,67.21
2017-10-09T23:58:40.474Z,67.32
